createdAt,value
2023-03-20T00:01:57.799Z,5.67
2023-03-20T00:04:26.931Z,4.77
2023-03-20T00:06:54.567Z,5.57
2023-03-20T00:09:22.348Z,5.00
2023-03-20T00:11:51.880Z,5.67
2023-03-20T00:14:22.421Z,5.80
2023-03-20T00:16:51.321Z,5.10
2023-03-20T00:19:20.994Z,5.07
2023-03-20T00:21:52.097Z,5.40
2023-03-20T00:24:20.009Z,6.00
2023-03-20T00:26:49.433Z,5.70
2023-03-20T00:29:23.623Z,5.03
2023-03-20T00:31:52.382Z,6.03
2023-03-20T00:34:23.506Z,8.03
2023-03-20T00:36:52.842Z,5.13
2023-03-20T00:39:20.562Z,5.13
2023-03-20T00:41:52.657Z,6.93
2023-03-20T00:44:24.028Z,6.20
2023-03-20T00:46:54.714Z,7.10
2023-03-20T00:49:26.347Z,7.83
2023-03-20T00:51:55.540Z,5.90
2023-03-20T00:54:23.362Z,8.93
2023-03-20T00:56:56.060Z,7.83
2023-03-20T00:59:26.835Z,5.87
2023-03-20T01:01:54.533Z,9.47
2023-03-20T01:04:22.967Z,7.73
2023-03-20T01:06:50.850Z,6.67
2023-03-20T01:09:19.886Z,6.77
2023-03-20T01:11:47.829Z,6.47
2023-03-20T01:14:17.945Z,5.60
2023-03-20T01:16:45.815Z,7.90
2023-03-20T01:19:14.977Z,7.20
2023-03-20T01:21:43.079Z,5.63
2023-03-20T01:24:11.110Z,5.63
2023-03-20T01:26:42.167Z,6.13
2023-03-20T01:29:19.617Z,7.50
2023-03-20T01:31:47.648Z,8.50
2023-03-20T01:34:16.318Z,5.00
2023-03-20T01:36:47.239Z,7.00
2023-03-20T01:39:15.751Z,5.83
2023-03-20T01:41:45.172Z,5.97
2023-03-20T01:44:22.144Z,5.67
2023-03-20T01:46:51.103Z,6.53
2023-03-20T01:49:51.946Z,8.37
2023-03-20T01:52:19.659Z,7.40
2023-03-20T01:54:47.364Z,8.90
2023-03-20T01:57:20.038Z,9.43
2023-03-20T01:59:51.135Z,10.33
2023-03-20T02:02:22.198Z,15.97
2023-03-20T02:04:55.081Z,9.77
2023-03-20T02:07:24.408Z,11.53
2023-03-20T02:09:52.725Z,11.77
2023-03-20T02:12:22.994Z,16.27
2023-03-20T02:14:52.921Z,14.77
2023-03-20T02:17:20.765Z,12.03
2023-03-20T02:19:59.022Z,14.60
2023-03-20T02:22:47.016Z,13.10
2023-03-20T02:25:40.153Z,14.17
2023-03-20T02:28:39.099Z,15.93
2023-03-20T02:31:35.910Z,15.73
2023-03-20T02:35:06.529Z,16.57
2023-03-20T02:38:03.002Z,15.93
2023-03-20T02:40:39.709Z,18.53
2023-03-20T02:43:17.376Z,16.13
2023-03-20T02:45:53.167Z,16.60
2023-03-20T02:48:34.267Z,15.10
2023-03-20T02:51:06.457Z,16.03
2023-03-20T02:53:47.683Z,15.43
2023-03-20T02:56:20.376Z,18.07
2023-03-20T02:58:52.221Z,16.70
2023-03-20T03:01:25.806Z,17.87
2023-03-20T03:03:57.549Z,16.53
2023-03-20T03:06:29.657Z,17.33
2023-03-20T03:09:03.907Z,18.30
2023-03-20T03:11:35.187Z,19.47
2023-03-20T03:14:05.066Z,18.73
2023-03-20T03:16:36.830Z,17.23
2023-03-20T03:19:09.468Z,17.20
2023-03-20T03:21:40.439Z,19.43
2023-03-20T03:24:39.285Z,16.63
2023-03-20T03:27:14.576Z,18.60
2023-03-20T03:29:44.231Z,17.87
2023-03-20T03:32:25.931Z,18.33
2023-03-20T03:34:54.602Z,17.10
2023-03-20T03:37:31.263Z,21.47
2023-03-20T03:40:11.738Z,19.33
2023-03-20T03:42:43.019Z,18.87
2023-03-20T03:45:15.182Z,19.23
2023-03-20T03:47:48.038Z,17.77
2023-03-20T03:50:21.415Z,19.77
2023-03-20T03:52:52.941Z,19.07
2023-03-20T03:55:26.584Z,19.23
2023-03-20T03:57:59.952Z,19.33
2023-03-20T04:00:29.088Z,18.80
2023-03-20T04:02:59.144Z,19.83
2023-03-20T04:05:31.500Z,19.20
2023-03-20T04:08:03.815Z,21.23
2023-03-20T04:10:32.918Z,21.43
2023-03-20T04:13:00.592Z,22.33
2023-03-20T04:15:29.031Z,22.67
2023-03-20T04:17:56.791Z,21.23
2023-03-20T04:20:24.523Z,23.47
2023-03-20T04:22:52.368Z,20.97
2023-03-20T04:25:21.834Z,22.50
2023-03-20T04:27:51.233Z,23.83
2023-03-20T04:30:19.474Z,22.27
2023-03-20T04:32:47.274Z,26.40
2023-03-20T04:35:14.935Z,24.40
2023-03-20T04:37:42.582Z,23.03
2023-03-20T04:40:11.810Z,24.13
2023-03-20T04:42:39.608Z,24.33
2023-03-20T04:45:10.408Z,23.00
2023-03-20T04:47:38.226Z,21.67
2023-03-20T04:50:07.145Z,21.37
2023-03-20T04:52:34.800Z,21.63
2023-03-20T04:55:02.541Z,24.83
2023-03-20T04:57:31.894Z,22.00
2023-03-20T04:59:59.615Z,24.13
2023-03-20T05:02:28.606Z,24.27
2023-03-20T05:04:56.222Z,25.33
2023-03-20T05:07:23.965Z,24.40
2023-03-20T05:09:51.758Z,24.17
2023-03-20T05:12:19.409Z,26.57
2023-03-20T05:14:47.109Z,25.33
2023-03-20T05:17:15.365Z,26.40
2023-03-20T05:19:44.557Z,24.43
2023-03-20T05:22:12.303Z,25.63
2023-03-20T05:24:40.000Z,28.30
2023-03-20T05:27:07.600Z,26.30
2023-03-20T05:29:35.280Z,24.77
2023-03-20T05:32:03.020Z,26.90
2023-03-20T05:34:31.057Z,25.17
2023-03-20T05:37:00.356Z,27.67
2023-03-20T05:39:28.079Z,29.03
2023-03-20T05:41:56.039Z,25.43
2023-03-20T05:44:24.039Z,26.37
2023-03-20T05:46:51.768Z,22.87
2023-03-20T05:49:19.471Z,24.23
2023-03-20T05:51:47.271Z,23.67
2023-03-20T05:54:16.511Z,25.73
2023-03-20T05:56:44.215Z,24.53
2023-03-20T05:59:13.630Z,24.03
2023-03-20T06:01:41.311Z,24.13
2023-03-20T06:04:09.069Z,24.00
2023-03-20T06:06:37.905Z,27.63
2023-03-20T06:09:05.914Z,22.83
2023-03-20T06:11:37.459Z,22.77
2023-03-20T06:14:05.508Z,22.57
2023-03-20T06:16:33.177Z,22.67
2023-03-20T06:19:01.073Z,23.57
2023-03-20T06:21:28.840Z,20.50
2023-03-20T06:23:56.667Z,21.90
2023-03-20T06:26:24.332Z,22.50
2023-03-20T06:28:53.296Z,24.20
2023-03-20T06:31:21.274Z,25.40
2023-03-20T06:33:49.009Z,22.07
2023-03-20T06:36:16.675Z,24.33
2023-03-20T06:38:44.459Z,24.13
2023-03-20T06:41:14.976Z,26.30
2023-03-20T06:43:49.262Z,23.70
2023-03-20T06:46:18.242Z,21.60
2023-03-20T06:48:45.907Z,26.20
2023-03-20T06:51:19.730Z,25.03
2023-03-20T06:53:47.419Z,27.23
2023-03-20T06:56:15.128Z,25.07
2023-03-20T06:58:42.922Z,29.70
2023-03-20T07:01:15.712Z,27.40
2023-03-20T07:03:45.176Z,24.43
2023-03-20T07:06:13.509Z,28.80
2023-03-20T07:08:41.308Z,28.93
2023-03-20T07:11:09.403Z,35.73
2023-03-20T07:13:37.976Z,32.70
2023-03-20T07:16:06.485Z,38.20
2023-03-20T07:18:34.175Z,29.13
2023-03-20T07:21:05.371Z,31.97
2023-03-20T07:23:50.983Z,28.30
2023-03-20T07:26:18.668Z,31.30
2023-03-20T07:28:46.400Z,33.03
2023-03-20T07:31:21.145Z,28.33
2023-03-20T07:33:48.926Z,25.87
2023-03-20T07:36:17.910Z,35.73
2023-03-20T07:38:45.930Z,28.30
2023-03-20T07:41:13.668Z,34.67
2023-03-20T07:43:43.056Z,31.67
2023-03-20T07:46:12.442Z,30.67
2023-03-20T07:48:40.361Z,32.50
2023-03-20T07:51:08.564Z,28.30
2023-03-20T07:53:37.669Z,31.20
2023-03-20T07:56:05.707Z,28.20
2023-03-20T07:58:33.401Z,30.07
2023-03-20T08:01:01.072Z,29.80
2023-03-20T08:03:28.956Z,29.93
2023-03-20T08:05:57.544Z,30.67
2023-03-20T08:08:25.528Z,28.30
2023-03-20T08:10:54.547Z,28.17
2023-03-20T08:13:22.235Z,30.37
2023-03-20T08:15:49.910Z,27.10
2023-03-20T08:18:17.578Z,27.63
2023-03-20T08:20:45.229Z,27.27
2023-03-20T08:23:12.893Z,26.63
2023-03-20T08:25:40.614Z,25.17
2023-03-20T08:28:11.672Z,29.73
2023-03-20T08:30:39.549Z,31.03
2023-03-20T08:33:07.311Z,29.73
2023-03-20T08:35:35.450Z,33.37
2023-03-20T08:38:03.682Z,31.20
2023-03-20T08:40:31.794Z,31.57
2023-03-20T08:43:00.254Z,31.37
2023-03-20T08:45:29.357Z,25.57
2023-03-20T08:47:56.973Z,23.30
2023-03-20T08:50:24.791Z,27.13
2023-03-20T08:52:52.763Z,26.33
2023-03-20T08:55:20.822Z,24.43
2023-03-20T08:57:48.616Z,22.63
2023-03-20T09:00:19.299Z,27.30
2023-03-20T09:02:48.426Z,24.03
2023-03-20T09:05:16.734Z,24.10
2023-03-20T09:07:45.439Z,26.60
2023-03-20T09:10:13.747Z,28.17
2023-03-20T09:12:41.483Z,26.27
2023-03-20T09:15:10.094Z,28.40
2023-03-20T09:17:37.877Z,24.70
2023-03-20T09:20:08.337Z,24.47
2023-03-20T09:22:36.406Z,27.40
2023-03-20T09:25:04.437Z,24.30
2023-03-20T09:27:32.227Z,22.47
2023-03-20T09:30:00.031Z,22.03
2023-03-20T09:32:27.784Z,19.20
2023-03-20T09:34:55.518Z,20.57
2023-03-20T09:37:24.675Z,18.97
2023-03-20T09:39:52.335Z,17.17
2023-03-20T09:42:34.086Z,18.63
2023-03-20T09:45:11.173Z,18.93
2023-03-20T09:47:47.500Z,17.60
2023-03-20T09:50:25.848Z,15.80
2023-03-20T09:53:00.885Z,15.13
2023-03-20T09:55:35.930Z,16.40
2023-03-20T09:58:11.656Z,16.10
2023-03-20T10:00:42.022Z,14.03
2023-03-20T10:03:18.949Z,15.17
2023-03-20T10:05:52.085Z,14.57
2023-03-20T10:08:27.188Z,14.50
2023-03-20T10:11:05.896Z,13.93
2023-03-20T10:13:49.250Z,13.93
2023-03-20T10:16:28.805Z,15.03
2023-03-20T10:19:06.009Z,12.77
2023-03-20T10:21:40.700Z,11.33
2023-03-20T10:24:19.631Z,12.07
2023-03-20T10:26:48.319Z,11.87
2023-03-20T10:29:26.450Z,10.77
2023-03-20T10:31:59.348Z,9.37
2023-03-20T10:34:42.560Z,9.70
2023-03-20T10:37:24.158Z,9.83
2023-03-20T10:40:05.531Z,11.90
2023-03-20T10:42:38.756Z,11.97
2023-03-20T10:45:16.131Z,10.73
2023-03-20T10:47:46.669Z,13.93
2023-03-20T10:50:18.826Z,14.90
2023-03-20T10:52:49.302Z,13.70
2023-03-20T10:55:22.160Z,15.73
2023-03-20T10:57:56.324Z,15.40
2023-03-20T11:00:27.067Z,14.63
2023-03-20T11:02:55.129Z,14.07
2023-03-20T11:05:26.542Z,13.70
2023-03-20T11:08:03.311Z,16.27
2023-03-20T11:10:35.209Z,13.27
2023-03-20T11:13:16.727Z,14.43
2023-03-20T11:15:44.439Z,12.03
2023-03-20T11:18:14.861Z,11.33
2023-03-20T11:20:48.330Z,13.07
2023-03-20T11:23:18.629Z,10.37
2023-03-20T11:25:52.499Z,10.37
2023-03-20T11:28:25.865Z,12.20
2023-03-20T11:31:07.208Z,12.83
2023-03-20T11:33:39.993Z,10.53
2023-03-20T11:36:27.673Z,10.23
2023-03-20T11:39:02.328Z,13.00
2023-03-20T11:41:31.544Z,14.87
2023-03-20T11:43:59.407Z,11.23
2023-03-20T11:46:27.134Z,12.17
2023-03-20T11:49:17.662Z,10.77
2023-03-20T11:51:45.642Z,11.63
2023-03-20T11:54:19.230Z,10.43
2023-03-20T11:56:55.667Z,13.03
2023-03-20T11:59:26.697Z,10.73
2023-03-20T12:01:56.868Z,10.80
2023-03-20T12:04:30.590Z,9.00
2023-03-20T12:07:04.386Z,8.83
2023-03-20T12:09:41.016Z,10.47
2023-03-20T12:12:17.491Z,8.33
2023-03-20T12:14:55.091Z,11.30
2023-03-20T12:17:35.004Z,8.77
2023-03-20T12:20:08.507Z,8.73
2023-03-20T12:22:41.175Z,8.60
2023-03-20T12:25:20.083Z,9.70
2023-03-20T12:27:56.540Z,7.13
2023-03-20T12:30:33.091Z,7.70
2023-03-20T12:33:05.652Z,7.63
2023-03-20T12:35:37.599Z,7.10
2023-03-20T12:38:15.815Z,6.97
2023-03-20T12:40:59.557Z,9.17
2023-03-20T12:43:36.104Z,6.50
2023-03-20T12:46:12.591Z,7.10
2023-03-20T12:48:55.462Z,7.60
2023-03-20T12:51:36.641Z,7.40
2023-03-20T12:54:18.765Z,8.27
2023-03-20T12:56:59.847Z,9.25
2023-03-20T12:59:40.603Z,6.43
2023-03-20T13:02:21.441Z,5.50
2023-03-20T13:05:02.739Z,6.33
2023-03-20T13:07:50.457Z,6.22
2023-03-20T13:10:22.280Z,6.77
2023-03-20T13:13:05.464Z,5.87
2023-03-20T13:15:50.574Z,5.03
2023-03-20T13:18:24.722Z,4.73
2023-03-20T13:20:55.198Z,5.40
2023-03-20T13:23:27.395Z,5.20
2023-03-20T13:26:08.586Z,6.57
2023-03-20T13:28:42.884Z,5.10
2023-03-20T13:31:25.532Z,5.77
2023-03-20T13:34:00.848Z,6.13
2023-03-20T13:36:43.847Z,8.40
2023-03-20T13:39:26.048Z,5.57
2023-03-20T13:41:55.967Z,5.33
2023-03-20T13:44:27.355Z,6.20
2023-03-20T13:46:58.240Z,8.53
2023-03-20T13:49:33.426Z,7.50
2023-03-20T13:52:07.694Z,5.03
2023-03-20T13:54:53.639Z,5.07
2023-03-20T13:57:39.198Z,4.97
2023-03-20T14:00:12.906Z,6.90
2023-03-20T14:02:54.971Z,4.83
2023-03-20T14:05:26.596Z,5.03
2023-03-20T14:07:57.815Z,5.70
2023-03-20T14:10:38.117Z,6.93
2023-03-20T14:13:12.838Z,5.40
2023-03-20T14:15:46.787Z,5.67
2023-03-20T14:18:17.207Z,10.80
2023-03-20T14:20:52.721Z,6.70
2023-03-20T14:23:29.263Z,5.80
2023-03-20T14:25:59.586Z,5.77
2023-03-20T14:28:31.561Z,5.80
2023-03-20T14:31:23.393Z,5.20
2023-03-20T14:34:00.429Z,10.30
2023-03-20T14:36:31.013Z,7.20
2023-03-20T14:39:13.355Z,6.33
2023-03-20T14:42:00.756Z,5.80
2023-03-20T14:44:46.386Z,5.97
2023-03-20T14:47:24.542Z,4.43
2023-03-20T14:49:56.661Z,6.50
2023-03-20T14:52:36.968Z,7.13
2023-03-20T14:55:34.130Z,7.20
2023-03-20T14:58:27.756Z,8.60
2023-03-20T15:00:55.456Z,5.77
2023-03-20T15:03:24.184Z,6.20
2023-03-20T15:05:57.830Z,8.43
2023-03-20T15:08:29.966Z,5.73
2023-03-20T15:11:00.809Z,8.47
2023-03-20T15:13:31.214Z,6.93
2023-03-20T15:16:04.078Z,6.40
2023-03-20T15:18:38.628Z,5.57
2023-03-20T15:21:13.928Z,6.47
2023-03-20T15:23:43.625Z,6.60
2023-03-20T15:26:11.942Z,6.57
2023-03-20T15:28:43.041Z,4.43
2023-03-20T15:31:22.595Z,5.77
2023-03-20T15:33:50.513Z,6.60
2023-03-20T15:36:20.625Z,5.40
2023-03-20T15:38:49.547Z,6.07
2023-03-20T15:41:27.891Z,6.03
2023-03-20T15:44:04.524Z,5.93
2023-03-20T15:46:32.204Z,5.57
2023-03-20T15:49:00.281Z,5.97
2023-03-20T15:51:29.192Z,6.00
2023-03-20T15:53:57.436Z,6.40
2023-03-20T15:56:28.129Z,5.63
2023-03-20T15:58:59.854Z,7.10
2023-03-20T16:01:27.774Z,5.57
2023-03-20T16:04:00.459Z,7.10
2023-03-20T16:06:29.337Z,4.77
2023-03-20T16:09:00.490Z,5.77
2023-03-20T16:11:38.321Z,3.47
2023-03-20T16:14:09.094Z,4.57
2023-03-20T16:16:37.543Z,3.20
2023-03-20T16:19:09.378Z,3.97
2023-03-20T16:21:41.040Z,3.77
2023-03-20T16:24:12.343Z,3.03
2023-03-20T16:26:46.845Z,4.10
2023-03-20T16:29:17.380Z,4.23
2023-03-20T16:31:50.874Z,5.20
2023-03-20T16:34:22.168Z,4.30
2023-03-20T16:36:54.386Z,7.97
2023-03-20T16:39:24.986Z,3.90
2023-03-20T16:42:11.192Z,6.17
2023-03-20T16:44:42.328Z,4.53
2023-03-20T16:47:22.384Z,4.80
2023-03-20T16:50:18.735Z,6.73
2023-03-20T16:52:49.245Z,4.20
2023-03-20T16:55:22.303Z,5.90
2023-03-20T16:57:53.948Z,6.27
2023-03-20T17:00:29.511Z,5.50
2023-03-20T17:03:13.922Z,4.97
2023-03-20T17:05:47.544Z,4.10
2023-03-20T17:08:18.025Z,8.60
2023-03-20T17:10:50.055Z,7.17
2023-03-20T17:13:17.892Z,6.47
2023-03-20T17:15:46.951Z,4.17
2023-03-20T17:18:15.397Z,5.83
2023-03-20T17:20:43.383Z,5.53
2023-03-20T17:23:17.790Z,6.07
2023-03-20T17:25:45.565Z,6.23
2023-03-20T17:28:20.623Z,5.70
2023-03-20T17:30:51.301Z,9.30
2023-03-20T17:33:20.881Z,5.03
2023-03-20T17:35:49.596Z,8.93
2023-03-20T17:38:19.683Z,6.30
2023-03-20T17:40:47.399Z,8.17
2023-03-20T17:43:16.719Z,6.03
2023-03-20T17:45:45.557Z,7.47
2023-03-20T17:48:16.731Z,6.30
2023-03-20T17:50:45.613Z,9.20
2023-03-20T17:53:16.974Z,7.43
2023-03-20T17:55:44.968Z,4.40
2023-03-20T17:58:17.466Z,9.17
2023-03-20T18:00:45.699Z,4.83
2023-03-20T18:03:15.336Z,5.73
2023-03-20T18:05:43.461Z,7.00
2023-03-20T18:08:14.972Z,6.83
2023-03-20T18:10:43.578Z,7.37
2023-03-20T18:13:13.939Z,6.23
2023-03-20T18:15:42.012Z,8.63
2023-03-20T18:18:10.307Z,6.37
2023-03-20T18:20:41.231Z,7.07
2023-03-20T18:23:09.567Z,8.77
2023-03-20T18:25:37.551Z,5.97
2023-03-20T18:28:07.352Z,8.60
2023-03-20T18:30:37.897Z,7.47
2023-03-20T18:33:06.895Z,9.70
2023-03-20T18:35:36.061Z,9.67
2023-03-20T18:38:06.345Z,11.87
2023-03-20T18:40:35.899Z,7.63
2023-03-20T18:43:04.181Z,6.63
2023-03-20T18:45:32.937Z,6.57
2023-03-20T18:48:03.755Z,6.57
2023-03-20T18:50:36.532Z,5.53
2023-03-20T18:53:07.891Z,8.97
2023-03-20T18:55:36.855Z,7.10
2023-03-20T18:58:06.137Z,6.80
2023-03-20T19:00:38.226Z,6.70
2023-03-20T19:03:07.236Z,5.43
2023-03-20T19:05:35.098Z,8.50
2023-03-20T19:08:03.451Z,8.30
2023-03-20T19:10:36.116Z,8.97
2023-03-20T19:13:05.876Z,6.53
2023-03-20T19:15:38.555Z,7.93
2023-03-20T19:18:08.753Z,8.20
2023-03-20T19:20:38.751Z,7.83
2023-03-20T19:23:08.711Z,7.93
2023-03-20T19:25:38.724Z,7.13
2023-03-20T19:28:07.763Z,7.23
2023-03-20T19:30:38.326Z,9.30
2023-03-20T19:33:07.402Z,12.30
2023-03-20T19:35:58.913Z,9.90
2023-03-20T19:38:24.174Z,11.10
2023-03-20T19:40:54.180Z,8.00
2023-03-20T19:43:22.382Z,9.03
2023-03-20T19:45:57.943Z,7.27
2023-03-20T19:48:43.353Z,8.60
2023-03-20T19:51:16.797Z,12.27
2023-03-20T19:53:45.964Z,8.73
2023-03-20T19:56:16.568Z,10.97
2023-03-20T19:58:44.769Z,11.20
2023-03-20T20:01:17.450Z,9.80
2023-03-20T20:03:46.271Z,10.27
2023-03-20T20:06:15.923Z,9.10
2023-03-20T20:08:49.072Z,7.83
2023-03-20T20:11:19.106Z,8.30
2023-03-20T20:16:35.264Z,9.33
2023-03-20T20:19:03.151Z,6.20
2023-03-20T20:24:18.664Z,8.87
2023-03-20T20:26:54.893Z,7.87
2023-03-20T20:29:28.255Z,10.30
2023-03-20T20:31:55.971Z,6.57
2023-03-20T20:40:00.193Z,6.63
2023-03-20T20:42:29.400Z,6.40
2023-03-20T20:44:57.092Z,6.23
2023-03-20T20:47:24.708Z,8.27
2023-03-20T20:49:52.378Z,11.07
2023-03-20T20:52:20.018Z,10.23
2023-03-20T20:54:48.287Z,11.87
2023-03-20T20:57:16.209Z,8.37
2023-03-20T20:59:45.302Z,10.47
2023-03-20T21:02:15.709Z,10.60
2023-03-20T21:04:44.171Z,8.70
2023-03-20T21:07:13.414Z,12.57
2023-03-20T21:09:41.648Z,10.90
2023-03-20T21:12:22.651Z,11.30
2023-03-20T21:14:59.850Z,9.93
2023-03-20T21:17:27.990Z,7.73
2023-03-20T21:19:56.066Z,9.93
2023-03-20T21:22:24.597Z,11.33
2023-03-20T21:25:07.239Z,10.87
2023-03-20T21:27:40.940Z,8.83
2023-03-20T21:30:11.504Z,11.80
2023-03-20T21:32:39.847Z,9.67
2023-03-20T21:35:09.292Z,11.83
2023-03-20T21:40:25.660Z,9.80
2023-03-20T21:42:53.305Z,11.17
2023-03-20T21:48:49.709Z,8.53
2023-03-20T21:51:50.252Z,10.30
2023-03-20T21:54:45.897Z,10.60
2023-03-20T21:57:24.995Z,9.33
2023-03-20T22:02:21.342Z,10.57
2023-03-20T22:05:53.078Z,10.80
2023-03-20T22:25:16.576Z,10.03
2023-03-20T22:28:00.838Z,11.50
2023-03-20T22:31:03.345Z,10.10
2023-03-20T22:42:13.756Z,11.43
2023-03-20T22:47:04.591Z,12.40
2023-03-20T22:49:32.394Z,11.20
2023-03-20T22:52:24.549Z,13.23
2023-03-20T22:54:49.108Z,11.10
2023-03-20T22:57:16.730Z,11.10
2023-03-20T22:59:44.415Z,7.57
2023-03-20T23:02:12.093Z,7.37
2023-03-20T23:04:39.919Z,8.87
2023-03-20T23:07:09.287Z,13.83
2023-03-20T23:09:37.015Z,10.23
2023-03-20T23:12:04.925Z,8.97
2023-03-20T23:14:44.806Z,10.97
2023-03-20T23:17:13.338Z,11.47
2023-03-20T23:19:47.865Z,13.70
2023-03-20T23:22:18.007Z,8.00
2023-03-20T23:24:45.732Z,10.40
2023-03-20T23:27:13.388Z,11.17
2023-03-20T23:29:41.180Z,12.03
2023-03-20T23:32:08.820Z,9.57
2023-03-20T23:34:37.469Z,9.30
2023-03-20T23:37:05.313Z,10.33
2023-03-20T23:39:34.368Z,8.97
2023-03-20T23:42:14.646Z,9.77
2023-03-20T23:44:56.314Z,10.33
2023-03-20T23:47:30.062Z,7.63
2023-03-20T23:50:03.085Z,10.17
2023-03-20T23:52:30.718Z,8.80
2023-03-20T23:55:00.699Z,8.37
2023-03-20T23:57:28.396Z,8.50
2023-03-20T23:59:56.053Z,9.07
